This is the latest recevied weather packets stored in our database for station/object OE7DRT-13. If no packets are shown the sender has not sent any weather packets the latest 10 day(s).
| Time | Temp. | Humidity | Pressure | Rain* | Wind** | Luminosity | Snow |
|---|---|---|---|---|---|---|---|
| 1778423415 | 17.22° C | 43% | 1010 hPa | 0 mm | - | - | - |
| 1778423134 | 17.78° C | 42% | 1010 hPa | 0 mm | - | - | - |
| 1778419534 | 18.33° C | 40% | 1010.3 hPa | 0 mm | - | - | - |
| 1778419232 | 17.78° C | 39% | 1010.3 hPa | 0 mm | - | - | - |
| 1778417724 | 18.33° C | 38% | 1010 hPa | 0 mm | - | - | - |
| 1778417121 | 18.33° C | 37% | 1010 hPa | 0 mm | - | - | - |
| 1778415632 | 18.33° C | 37% | 1010.3 hPa | 0 mm | - | - | - |
| 1778415330 | 18.89° C | 36% | 1010.3 hPa | 0 mm | - | - | - |
| 1778414123 | 18.33° C | 37% | 1010.7 hPa | 0 mm | - | - | - |
| 1778413822 | 18.33° C | 37% | 1010.8 hPa | 0 mm | - | - | - |
| 1778412655 | 18.33° C | 37% | 1011 hPa | 0 mm | - | - | - |
| 1778412031 | 18.33° C | 38% | 1011.1 hPa | 0 mm | - | - | - |
| 1778411429 | 18.33° C | 38% | 1011.3 hPa | 0 mm | - | - | - |
| 1778408732 | 17.78° C | 39% | 1011.5 hPa | 0 mm | - | - | - |
| 1778408431 | 18.33° C | 38% | 1011.6 hPa | 0 mm | - | - | - |
| 1778408129 | 18.33° C | 38% | 1011.5 hPa | 0 mm | - | - | - |
| 1778405735 | 17.22° C | 39% | 1011.9 hPa | 0 mm | - | - | - |
| 1778404830 | 17.22° C | 41% | 1012 hPa | 0 mm | - | - | - |
| 1778402416 | 14.44° C | 55% | 1012.4 hPa | 0 mm | - | - | - |
| 1778402134 | 13.89° C | 57% | 1012.5 hPa | 0 mm | - | - | - |
| 1778400022 | 11.67° C | 66% | 1012.9 hPa | 0 mm | - | - | - |
| 1778395818 | 7.78° C | 79% | 1013.7 hPa | 0 mm | - | - | - |
| 1778388920 | 4.44° C | 89% | 1015 hPa | 0 mm | - | - | - |
| 1778387733 | 4.44° C | 89% | 1015.2 hPa | 0 mm | - | - | - |
| 1778387432 | 4.44° C | 89% | 1015.2 hPa | 0 mm | - | - | - |
* Rain latest hour (hover to see other rain measurements)
** Current wind speed in m/s (hover to see current wind gust speed)